sensor_id;sensor_type;location;lat;lon;timestamp;P1;durP1;ratioP1;P2;durP2;ratioP2
79122;SDS011;68526;44.600;26.032;2024-02-21T00:00:15;38.25;;;24.52;;
79122;SDS011;68526;44.600;26.032;2024-02-21T00:00:32;37.42;;;23.27;;
79122;SDS011;68526;44.600;26.032;2024-02-21T00:00:48;35.80;;;22.63;;
79122;SDS011;68526;44.600;26.032;2024-02-21T00:01:04;36.28;;;22.92;;
79122;SDS011;68526;44.600;26.032;2024-02-21T00:01:21;36.03;;;22.95;;
79122;SDS011;68526;44.600;26.032;2024-02-21T00:01:39;36.70;;;23.25;;
79122;SDS011;68526;44.600;26.032;2024-02-21T00:01:55;38.13;;;24.50;;
79122;SDS011;68526;44.600;26.032;2024-02-21T00:02:11;41.03;;;24.30;;
79122;SDS011;68526;44.600;26.032;2024-02-21T00:02:27;38.80;;;23.33;;
79122;SDS011;68526;44.600;26.032;2024-02-21T00:02:43;36.60;;;23.33;;
79122;SDS011;68526;44.600;26.032;2024-02-21T00:02:59;36.30;;;22.98;;
79122;SDS011;68526;44.600;26.032;2024-02-21T00:03:17;34.78;;;22.95;;
79122;SDS011;68526;44.600;26.032;2024-02-21T00:03:34;35.97;;;23.15;;
79122;SDS011;68526;44.600;26.032;2024-02-21T00:03:51;37.22;;;23.23;;
79122;SDS011;68526;44.600;26.032;2024-02-21T00:04:07;35.67;;;23.42;;
79122;SDS011;68526;44.600;26.032;2024-02-21T00:04:23;35.80;;;23.30;;
79122;SDS011;68526;44.600;26.032;2024-02-21T00:04:39;38.83;;;23.30;;
79122;SDS011;68526;44.600;26.032;2024-02-21T00:04:55;41.53;;;24.33;;
79122;SDS011;68526;44.600;26.032;2024-02-21T00:05:11;40.92;;;24.20;;
79122;SDS011;68526;44.600;26.032;2024-02-21T00:05:28;38.78;;;23.33;;
79122;SDS011;68526;44.600;26.032;2024-02-21T00:05:44;41.58;;;23.75;;
79122;SDS011;68526;44.600;26.032;2024-02-21T00:06:00;41.38;;;24.10;;
79122;SDS011;68526;44.600;26.032;2024-02-21T00:06:16;38.13;;;23.40;;
79122;SDS011;68526;44.600;26.032;2024-02-21T00:06:32;37.38;;;22.85;;
79122;SDS011;68526;44.600;26.032;2024-02-21T00:06:49;38.35;;;23.38;;
79122;SDS011;68526;44.600;26.032;2024-02-21T00:07:06;40.55;;;24.27;;
79122;SDS011;68526;44.600;26.032;2024-02-21T00:07:22;40.63;;;24.55;;
79122;SDS011;68526;44.600;26.032;2024-02-21T00:07:39;40.00;;;24.65;;
79122;SDS011;68526;44.600;26.032;2024-02-21T00:07:55;39.25;;;24.13;;
79122;SDS011;68526;44.600;26.032;2024-02-21T00:08:11;40.15;;;24.20;;
79122;SDS011;68526;44.600;26.032;2024-02-21T00:08:27;40.58;;;24.73;;
79122;SDS011;68526;44.600;26.032;2024-02-21T00:08:43;38.75;;;24.17;;
79122;SDS011;68526;44.600;26.032;2024-02-21T00:08:59;37.95;;;23.95;;
79122;SDS011;68526;44.600;26.032;2024-02-21T00:09:14;37.35;;;24.17;;
79122;SDS011;68526;44.600;26.032;2024-02-21T00:09:32;38.28;;;23.58;;
79122;SDS011;68526;44.600;26.032;2024-02-21T00:09:48;38.33;;;22.88;;
79122;SDS011;68526;44.600;26.032;2024-02-21T00:10:04;38.05;;;23.35;;
79122;SDS011;68526;44.600;26.032;2024-02-21T00:10:21;38.72;;;24.35;;
79122;SDS011;68526;44.600;26.032;2024-02-21T00:10:37;38.57;;;24.20;;
79122;SDS011;68526;44.600;26.032;2024-02-21T00:10:53;39.20;;;24.48;;
79122;SDS011;68526;44.600;26.032;2024-02-21T00:11:09;36.47;;;23.38;;
79122;SDS011;68526;44.600;26.032;2024-02-21T00:11:27;36.50;;;22.80;;
79122;SDS011;68526;44.600;26.032;2024-02-21T00:11:43;37.17;;;23.35;;
79122;SDS011;68526;44.600;26.032;2024-02-21T00:11:59;38.73;;;23.87;;
79122;SDS011;68526;44.600;26.032;2024-02-21T00:12:16;37.25;;;23.38;;
79122;SDS011;68526;44.600;26.032;2024-02-21T00:12:32;36.75;;;23.08;;
79122;SDS011;68526;44.600;26.032;2024-02-21T00:12:48;37.78;;;24.10;;
79122;SDS011;68526;44.600;26.032;2024-02-21T00:13:04;38.25;;;24.17;;
79122;SDS011;68526;44.600;26.032;2024-02-21T00:13:21;37.70;;;23.38;;
79122;SDS011;68526;44.600;26.032;2024-02-21T00:13:38;36.10;;;22.88;;
79122;SDS011;68526;44.600;26.032;2024-02-21T00:13:54;36.70;;;23.15;;
79122;SDS011;68526;44.600;26.032;2024-02-21T00:14:10;37.53;;;23.23;;
79122;SDS011;68526;44.600;26.032;2024-02-21T00:14:26;40.35;;;24.30;;
79122;SDS011;68526;44.600;26.032;2024-02-21T00:14:42;40.15;;;24.33;;
79122;SDS011;68526;44.600;26.032;2024-02-21T00:14:58;38.75;;;23.52;;
79122;SDS011;68526;44.600;26.032;2024-02-21T00:15:14;39.20;;;24.57;;
79122;SDS011;68526;44.600;26.032;2024-02-21T00:15:31;41.10;;;25.00;;
79122;SDS011;68526;44.600;26.032;2024-02-21T00:15:47;39.92;;;24.13;;
79122;SDS011;68526;44.600;26.032;2024-02-21T00:16:04;39.38;;;24.50;;
79122;SDS011;68526;44.600;26.032;2024-02-21T00:16:20;39.08;;;24.25;;
79122;SDS011;68526;44.600;26.032;2024-02-21T00:16:36;38.70;;;23.55;;
79122;SDS011;68526;44.600;26.032;2024-02-21T00:16:52;39.72;;;24.35;;
79122;SDS011;68526;44.600;26.032;2024-02-21T00:17:08;38.47;;;23.67;;
79122;SDS011;68526;44.600;26.032;2024-02-21T00:17:24;35.88;;;22.77;;
79122;SDS011;68526;44.600;26.032;2024-02-21T00:17:43;38.33;;;23.20;;
79122;SDS011;68526;44.600;26.032;2024-02-21T00:17:59;37.30;;;23.33;;
79122;SDS011;68526;44.600;26.032;2024-02-21T00:18:15;35.97;;;23.73;;
79122;SDS011;68526;44.600;26.032;2024-02-21T00:18:31;35.85;;;23.13;;
79122;SDS011;68526;44.600;26.032;2024-02-21T00:18:47;36.15;;;22.80;;
79122;SDS011;68526;44.600;26.032;2024-02-21T00:19:04;37.83;;;23.92;;
79122;SDS011;68526;44.600;26.032;2024-02-21T00:19:20;38.28;;;24.75;;
79122;SDS011;68526;44.600;26.032;2024-02-21T00:19:37;37.25;;;24.48;;
79122;SDS011;68526;44.600;26.032;2024-02-21T00:19:53;37.40;;;24.50;;
79122;SDS011;68526;44.600;26.032;2024-02-21T00:20:09;37.05;;;24.70;;
79122;SDS011;68526;44.600;26.032;2024-02-21T00:20:26;37.30;;;24.55;;
79122;SDS011;68526;44.600;26.032;2024-02-21T00:20:42;38.55;;;24.55;;
79122;SDS011;68526;44.600;26.032;2024-02-21T00:20:58;37.88;;;23.42;;
79122;SDS011;68526;44.600;26.032;2024-02-21T00:21:16;38.25;;;23.83;;
79122;SDS011;68526;44.600;26.032;2024-02-21T00:21:33;37.70;;;23.85;;
79122;SDS011;68526;44.600;26.032;2024-02-21T00:21:51;38.22;;;23.67;;
79122;SDS011;68526;44.600;26.032;2024-02-21T00:22:07;38.95;;;23.60;;
79122;SDS011;68526;44.600;26.032;2024-02-21T00:22:23;37.30;;;23.27;;
79122;SDS011;68526;44.600;26.032;2024-02-21T00:22:40;36.60;;;23.65;;
79122;SDS011;68526;44.600;26.032;2024-02-21T00:22:56;37.35;;;23.88;;
79122;SDS011;68526;44.600;26.032;2024-02-21T00:23:12;38.10;;;24.08;;
79122;SDS011;68526;44.600;26.032;2024-02-21T00:23:28;37.17;;;24.02;;
79122;SDS011;68526;44.600;26.032;2024-02-21T00:23:45;37.33;;;23.05;;
79122;SDS011;68526;44.600;26.032;2024-02-21T00:24:01;38.30;;;24.43;;
79122;SDS011;68526;44.600;26.032;2024-02-21T00:24:18;35.78;;;24.13;;
79122;SDS011;68526;44.600;26.032;2024-02-21T00:24:34;36.73;;;24.00;;
79122;SDS011;68526;44.600;26.032;2024-02-21T00:24:50;38.65;;;24.65;;
79122;SDS011;68526;44.600;26.032;2024-02-21T00:25:06;38.28;;;24.05;;
79122;SDS011;68526;44.600;26.032;2024-02-21T00:25:23;40.20;;;23.88;;
79122;SDS011;68526;44.600;26.032;2024-02-21T00:25:40;40.28;;;24.20;;
79122;SDS011;68526;44.600;26.032;2024-02-21T00:25:56;40.65;;;24.10;;
79122;SDS011;68526;44.600;26.032;2024-02-21T00:26:12;42.97;;;24.13;;
79122;SDS011;68526;44.600;26.032;2024-02-21T00:26:28;41.92;;;24.60;;
79122;SDS011;68526;44.600;26.032;2024-02-21T00:26:44;39.03;;;24.70;;
79122;SDS011;68526;44.600;26.032;2024-02-21T00:27:00;39.58;;;24.52;;
79122;SDS011;68526;44.600;26.032;2024-02-21T00:27:17;39.40;;;24.17;;
79122;SDS011;68526;44.600;26.032;2024-02-21T00:27:32;39.72;;;24.50;;
79122;SDS011;68526;44.600;26.032;2024-02-21T00:27:50;38.17;;;23.90;;
79122;SDS011;68526;44.600;26.032;2024-02-21T00:28:05;38.05;;;23.63;;
79122;SDS011;68526;44.600;26.032;2024-02-21T00:28:21;38.40;;;23.60;;
79122;SDS011;68526;44.600;26.032;2024-02-21T00:28:38;37.67;;;23.30;;
79122;SDS011;68526;44.600;26.032;2024-02-21T00:28:53;39.05;;;23.83;;
79122;SDS011;68526;44.600;26.032;2024-02-21T00:29:10;40.88;;;24.92;;
79122;SDS011;68526;44.600;26.032;2024-02-21T00:29:28;40.20;;;24.42;;
79122;SDS011;68526;44.600;26.032;2024-02-21T00:29:44;38.70;;;23.40;;
79122;SDS011;68526;44.600;26.032;2024-02-21T00:30:00;37.78;;;23.13;;
79122;SDS011;68526;44.600;26.032;2024-02-21T00:30:16;37.08;;;23.67;;
79122;SDS011;68526;44.600;26.032;2024-02-21T00:30:32;36.45;;;23.00;;
79122;SDS011;68526;44.600;26.032;2024-02-21T00:30:48;37.42;;;22.92;;
79122;SDS011;68526;44.600;26.032;2024-02-21T00:31:05;37.45;;;23.65;;
79122;SDS011;68526;44.600;26.032;2024-02-21T00:31:22;37.95;;;23.92;;
79122;SDS011;68526;44.600;26.032;2024-02-21T00:31:38;38.85;;;23.60;;
79122;SDS011;68526;44.600;26.032;2024-02-21T00:31:54;38.67;;;23.45;;
79122;SDS011;68526;44.600;26.032;2024-02-21T00:32:10;36.13;;;23.23;;
79122;SDS011;68526;44.600;26.032;2024-02-21T00:32:26;37.53;;;24.08;;
79122;SDS011;68526;44.600;26.032;2024-02-21T00:32:42;37.83;;;23.98;;
79122;SDS011;68526;44.600;26.032;2024-02-21T00:32:59;36.53;;;23.02;;
79122;SDS011;68526;44.600;26.032;2024-02-21T00:33:16;36.50;;;23.35;;
79122;SDS011;68526;44.600;26.032;2024-02-21T00:33:32;38.28;;;23.92;;
79122;SDS011;68526;44.600;26.032;2024-02-21T00:33:48;39.05;;;23.95;;
79122;SDS011;68526;44.600;26.032;2024-02-21T00:34:04;37.92;;;24.02;;
79122;SDS011;68526;44.600;26.032;2024-02-21T00:34:20;38.63;;;24.23;;
79122;SDS011;68526;44.600;26.032;2024-02-21T00:34:37;36.97;;;22.95;;
79122;SDS011;68526;44.600;26.032;2024-02-21T00:34:53;35.83;;;22.77;;
79122;SDS011;68526;44.600;26.032;2024-02-21T00:35:09;37.22;;;23.65;;
79122;SDS011;68526;44.600;26.032;2024-02-21T00:35:25;38.03;;;24.35;;
79122;SDS011;68526;44.600;26.032;2024-02-21T00:35:41;36.25;;;23.75;;
79122;SDS011;68526;44.600;26.032;2024-02-21T00:35:57;35.50;;;22.65;;
79122;SDS011;68526;44.600;26.032;2024-02-21T00:36:13;37.22;;;23.08;;
79122;SDS011;68526;44.600;26.032;2024-02-21T00:36:30;38.00;;;23.40;;
79122;SDS011;68526;44.600;26.032;2024-02-21T00:36:48;37.78;;;23.05;;
79122;SDS011;68526;44.600;26.032;2024-02-21T00:37:06;38.40;;;23.02;;
79122;SDS011;68526;44.600;26.032;2024-02-21T00:37:22;36.95;;;22.58;;
79122;SDS011;68526;44.600;26.032;2024-02-21T00:37:38;35.85;;;22.23;;
79122;SDS011;68526;44.600;26.032;2024-02-21T00:37:54;36.75;;;22.35;;
79122;SDS011;68526;44.600;26.032;2024-02-21T00:38:12;39.10;;;23.25;;
79122;SDS011;68526;44.600;26.032;2024-02-21T00:38:29;37.22;;;22.80;;
79122;SDS011;68526;44.600;26.032;2024-02-21T00:38:45;34.90;;;21.80;;
79122;SDS011;68526;44.600;26.032;2024-02-21T00:39:01;36.33;;;21.70;;
79122;SDS011;68526;44.600;26.032;2024-02-21T00:39:18;36.92;;;21.75;;
79122;SDS011;68526;44.600;26.032;2024-02-21T00:39:34;37.47;;;23.00;;
79122;SDS011;68526;44.600;26.032;2024-02-21T00:39:50;36.28;;;23.27;;
79122;SDS011;68526;44.600;26.032;2024-02-21T00:40:06;35.58;;;22.17;;
79122;SDS011;68526;44.600;26.032;2024-02-21T00:40:22;37.50;;;22.70;;
79122;SDS011;68526;44.600;26.032;2024-02-21T00:40:39;38.10;;;23.38;;
79122;SDS011;68526;44.600;26.032;2024-02-21T00:40:55;35.70;;;22.38;;
79122;SDS011;68526;44.600;26.032;2024-02-21T00:41:12;34.10;;;22.27;;
79122;SDS011;68526;44.600;26.032;2024-02-21T00:41:28;37.20;;;22.88;;
79122;SDS011;68526;44.600;26.032;2024-02-21T00:41:44;36.23;;;22.70;;
79122;SDS011;68526;44.600;26.032;2024-02-21T00:42:00;35.83;;;22.70;;
79122;SDS011;68526;44.600;26.032;2024-02-21T00:42:17;36.80;;;22.73;;
79122;SDS011;68526;44.600;26.032;2024-02-21T00:42:34;36.15;;;22.73;;
79122;SDS011;68526;44.600;26.032;2024-02-21T00:42:51;36.08;;;22.83;;
79122;SDS011;68526;44.600;26.032;2024-02-21T00:43:07;36.70;;;22.55;;
79122;SDS011;68526;44.600;26.032;2024-02-21T00:43:23;35.92;;;22.15;;
79122;SDS011;68526;44.600;26.032;2024-02-21T00:43:39;34.72;;;21.60;;
79122;SDS011;68526;44.600;26.032;2024-02-21T00:43:56;37.08;;;22.25;;
79122;SDS011;68526;44.600;26.032;2024-02-21T00:44:12;38.38;;;22.55;;
79122;SDS011;68526;44.600;26.032;2024-02-21T00:44:30;35.67;;;22.50;;
79122;SDS011;68526;44.600;26.032;2024-02-21T00:44:46;34.42;;;22.17;;
79122;SDS011;68526;44.600;26.032;2024-02-21T00:45:02;34.10;;;21.45;;
79122;SDS011;68526;44.600;26.032;2024-02-21T00:45:18;34.80;;;21.85;;
79122;SDS011;68526;44.600;26.032;2024-02-21T00:45:34;34.78;;;21.48;;
79122;SDS011;68526;44.600;26.032;2024-02-21T00:45:50;35.72;;;22.00;;
79122;SDS011;68526;44.600;26.032;2024-02-21T00:46:06;37.00;;;22.67;;
79122;SDS011;68526;44.600;26.032;2024-02-21T00:46:23;37.20;;;22.58;;
79122;SDS011;68526;44.600;26.032;2024-02-21T00:46:39;38.00;;;22.92;;
79122;SDS011;68526;44.600;26.032;2024-02-21T00:46:56;37.05;;;22.67;;
79122;SDS011;68526;44.600;26.032;2024-02-21T00:47:12;36.70;;;22.23;;
79122;SDS011;68526;44.600;26.032;2024-02-21T00:47:28;34.25;;;21.17;;
79122;SDS011;68526;44.600;26.032;2024-02-21T00:47:44;35.35;;;21.00;;
79122;SDS011;68526;44.600;26.032;2024-02-21T00:48:01;36.97;;;21.80;;
79122;SDS011;68526;44.600;26.032;2024-02-21T00:48:17;35.58;;;22.27;;
79122;SDS011;68526;44.600;26.032;2024-02-21T00:48:33;35.63;;;22.75;;
79122;SDS011;68526;44.600;26.032;2024-02-21T00:48:50;35.97;;;22.48;;
79122;SDS011;68526;44.600;26.032;2024-02-21T00:49:06;36.22;;;22.52;;
79122;SDS011;68526;44.600;26.032;2024-02-21T00:49:22;34.78;;;22.55;;
79122;SDS011;68526;44.600;26.032;2024-02-21T00:49:38;35.30;;;22.55;;
79122;SDS011;68526;44.600;26.032;2024-02-21T00:49:54;36.38;;;22.45;;
79122;SDS011;68526;44.600;26.032;2024-02-21T00:50:10;37.10;;;22.27;;
79122;SDS011;68526;44.600;26.032;2024-02-21T00:50:26;36.78;;;22.70;;
79122;SDS011;68526;44.600;26.032;2024-02-21T00:50:44;35.90;;;22.93;;
79122;SDS011;68526;44.600;26.032;2024-02-21T00:51:00;36.88;;;23.42;;
79122;SDS011;68526;44.600;26.032;2024-02-21T00:51:16;36.90;;;23.25;;
79122;SDS011;68526;44.600;26.032;2024-02-21T00:51:32;37.85;;;22.85;;
79122;SDS011;68526;44.600;26.032;2024-02-21T00:51:48;39.05;;;23.00;;
79122;SDS011;68526;44.600;26.032;2024-02-21T00:52:04;36.92;;;22.38;;
79122;SDS011;68526;44.600;26.032;2024-02-21T00:52:22;37.75;;;23.13;;
79122;SDS011;68526;44.600;26.032;2024-02-21T00:52:38;38.08;;;23.38;;
79122;SDS011;68526;44.600;26.032;2024-02-21T00:52:54;35.97;;;23.33;;
79122;SDS011;68526;44.600;26.032;2024-02-21T00:53:10;37.53;;;23.52;;
79122;SDS011;68526;44.600;26.032;2024-02-21T00:53:26;38.15;;;23.80;;
79122;SDS011;68526;44.600;26.032;2024-02-21T00:53:42;36.65;;;24.02;;
79122;SDS011;68526;44.600;26.032;2024-02-21T00:53:58;36.22;;;23.33;;
79122;SDS011;68526;44.600;26.032;2024-02-21T00:54:14;36.92;;;23.33;;
79122;SDS011;68526;44.600;26.032;2024-02-21T00:54:32;38.70;;;23.85;;
79122;SDS011;68526;44.600;26.032;2024-02-21T00:54:48;37.92;;;22.60;;
79122;SDS011;68526;44.600;26.032;2024-02-21T00:55:04;37.13;;;22.45;;
79122;SDS011;68526;44.600;26.032;2024-02-21T00:55:21;36.10;;;22.50;;
79122;SDS011;68526;44.600;26.032;2024-02-21T00:55:37;37.92;;;23.08;;
79122;SDS011;68526;44.600;26.032;2024-02-21T00:55:53;38.78;;;23.15;;
79122;SDS011;68526;44.600;26.032;2024-02-21T00:56:09;39.38;;;22.75;;
79122;SDS011;68526;44.600;26.032;2024-02-21T00:56:27;36.83;;;22.30;;
79122;SDS011;68526;44.600;26.032;2024-02-21T00:56:43;36.10;;;22.67;;
79122;SDS011;68526;44.600;26.032;2024-02-21T00:56:59;37.20;;;22.95;;
79122;SDS011;68526;44.600;26.032;2024-02-21T00:57:15;39.50;;;23.77;;
79122;SDS011;68526;44.600;26.032;2024-02-21T00:57:31;37.78;;;23.52;;
79122;SDS011;68526;44.600;26.032;2024-02-21T00:57:47;36.15;;;23.10;;
79122;SDS011;68526;44.600;26.032;2024-02-21T00:58:03;36.13;;;22.60;;
79122;SDS011;68526;44.600;26.032;2024-02-21T00:58:19;38.50;;;23.25;;
79122;SDS011;68526;44.600;26.032;2024-02-21T00:58:36;40.92;;;24.45;;
79122;SDS011;68526;44.600;26.032;2024-02-21T00:58:52;38.28;;;23.50;;
79122;SDS011;68526;44.600;26.032;2024-02-21T00:59:08;36.70;;;23.30;;
79122;SDS011;68526;44.600;26.032;2024-02-21T00:59:24;39.92;;;24.55;;
79122;SDS011;68526;44.600;26.032;2024-02-21T00:59:40;39.40;;;23.92;;
79122;SDS011;68526;44.600;26.032;2024-02-21T00:59:57;37.92;;;23.10;;
79122;SDS011;68526;44.600;26.032;2024-02-21T01:00:13;36.63;;;22.95;;
79122;SDS011;68526;44.600;26.032;2024-02-21T01:00:29;35.83;;;23.15;;
79122;SDS011;68526;44.600;26.032;2024-02-21T01:00:47;37.47;;;23.40;;
79122;SDS011;68526;44.600;26.032;2024-02-21T01:01:03;37.95;;;23.75;;
79122;SDS011;68526;44.600;26.032;2024-02-21T01:01:22;38.60;;;23.98;;
79122;SDS011;68526;44.600;26.032;2024-02-21T01:01:38;39.50;;;24.00;;
79122;SDS011;68526;44.600;26.032;2024-02-21T01:01:57;39.10;;;23.92;;
79122;SDS011;68526;44.600;26.032;2024-02-21T01:02:13;38.25;;;23.55;;
79122;SDS011;68526;44.600;26.032;2024-02-21T01:02:29;38.00;;;23.17;;
79122;SDS011;68526;44.600;26.032;2024-02-21T01:02:46;38.72;;;23.92;;
79122;SDS011;68526;44.600;26.032;2024-02-21T01:03:03;37.95;;;23.73;;
79122;SDS011;68526;44.600;26.032;2024-02-21T01:03:19;38.58;;;24.02;;
79122;SDS011;68526;44.600;26.032;2024-02-21T01:03:35;39.67;;;24.02;;
79122;SDS011;68526;44.600;26.032;2024-02-21T01:03:51;40.27;;;23.93;;
79122;SDS011;68526;44.600;26.032;2024-02-21T01:04:08;38.47;;;23.60;;
79122;SDS011;68526;44.600;26.032;2024-02-21T01:04:26;36.95;;;23.05;;
79122;SDS011;68526;44.600;26.032;2024-02-21T01:04:42;38.15;;;23.40;;
79122;SDS011;68526;44.600;26.032;2024-02-21T01:04:58;39.72;;;23.98;;
79122;SDS011;68526;44.600;26.032;2024-02-21T01:05:14;37.70;;;24.38;;
79122;SDS011;68526;44.600;26.032;2024-02-21T01:05:30;37.67;;;24.27;;
79122;SDS011;68526;44.600;26.032;2024-02-21T01:05:46;36.55;;;23.65;;
79122;SDS011;68526;44.600;26.032;2024-02-21T01:06:03;38.92;;;24.13;;
79122;SDS011;68526;44.600;26.032;2024-02-21T01:06:19;41.95;;;24.20;;
79122;SDS011;68526;44.600;26.032;2024-02-21T01:06:35;40.00;;;24.33;;
79122;SDS011;68526;44.600;26.032;2024-02-21T01:06:51;38.10;;;24.60;;
79122;SDS011;68526;44.600;26.032;2024-02-21T01:07:09;38.88;;;24.08;;
79122;SDS011;68526;44.600;26.032;2024-02-21T01:07:25;39.92;;;23.73;;
79122;SDS011;68526;44.600;26.032;2024-02-21T01:07:42;40.15;;;23.80;;
79122;SDS011;68526;44.600;26.032;2024-02-21T01:07:58;40.80;;;24.55;;
79122;SDS011;68526;44.600;26.032;2024-02-21T01:08:14;39.77;;;24.07;;
79122;SDS011;68526;44.600;26.032;2024-02-21T01:08:30;37.08;;;23.27;;
79122;SDS011;68526;44.600;26.032;2024-02-21T01:08:46;36.40;;;23.65;;
79122;SDS011;68526;44.600;26.032;2024-02-21T01:09:03;37.40;;;23.40;;
79122;SDS011;68526;44.600;26.032;2024-02-21T01:09:19;39.42;;;23.73;;
79122;SDS011;68526;44.600;26.032;2024-02-21T01:09:36;43.17;;;25.65;;
79122;SDS011;68526;44.600;26.032;2024-02-21T01:09:52;40.75;;;25.02;;
79122;SDS011;68526;44.600;26.032;2024-02-21T01:10:08;39.50;;;24.38;;
79122;SDS011;68526;44.600;26.032;2024-02-21T01:10:24;39.60;;;24.42;;
79122;SDS011;68526;44.600;26.032;2024-02-21T01:10:40;38.63;;;23.70;;
79122;SDS011;68526;44.600;26.032;2024-02-21T01:10:56;40.88;;;23.90;;
79122;SDS011;68526;44.600;26.032;2024-02-21T01:11:16;38.30;;;23.75;;
79122;SDS011;68526;44.600;26.032;2024-02-21T01:11:33;40.88;;;24.58;;
79122;SDS011;68526;44.600;26.032;2024-02-21T01:11:50;42.78;;;24.67;;
79122;SDS011;68526;44.600;26.032;2024-02-21T01:12:06;38.30;;;24.02;;
79122;SDS011;68526;44.600;26.032;2024-02-21T01:12:22;39.47;;;24.07;;
79122;SDS011;68526;44.600;26.032;2024-02-21T01:12:38;39.08;;;23.90;;
79122;SDS011;68526;44.600;26.032;2024-02-21T01:12:54;38.95;;;23.08;;
79122;SDS011;68526;44.600;26.032;2024-02-21T01:13:10;40.05;;;23.70;;
79122;SDS011;68526;44.600;26.032;2024-02-21T01:13:28;41.00;;;24.83;;
79122;SDS011;68526;44.600;26.032;2024-02-21T01:13:44;40.80;;;25.63;;
79122;SDS011;68526;44.600;26.032;2024-02-21T01:14:00;39.13;;;25.13;;
79122;SDS011;68526;44.600;26.032;2024-02-21T01:14:16;38.78;;;24.38;;
79122;SDS011;68526;44.600;26.032;2024-02-21T01:14:32;40.10;;;25.48;;
79122;SDS011;68526;44.600;26.032;2024-02-21T01:14:48;40.08;;;25.90;;
79122;SDS011;68526;44.600;26.032;2024-02-21T01:15:04;38.53;;;23.92;;
79122;SDS011;68526;44.600;26.032;2024-02-21T01:15:21;39.10;;;23.80;;
79122;SDS011;68526;44.600;26.032;2024-02-21T01:15:38;41.13;;;24.67;;
79122;SDS011;68526;44.600;26.032;2024-02-21T01:15:54;42.30;;;25.13;;
79122;SDS011;68526;44.600;26.032;2024-02-21T01:16:10;41.53;;;24.53;;
79122;SDS011;68526;44.600;26.032;2024-02-21T01:16:26;40.63;;;23.87;;
79122;SDS011;68526;44.600;26.032;2024-02-21T01:16:42;40.22;;;23.70;;
79122;SDS011;68526;44.600;26.032;2024-02-21T01:16:58;39.35;;;24.13;;
79122;SDS011;68526;44.600;26.032;2024-02-21T01:17:14;38.13;;;23.85;;
79122;SDS011;68526;44.600;26.032;2024-02-21T01:17:30;41.00;;;23.73;;
79122;SDS011;68526;44.600;26.032;2024-02-21T01:17:47;42.47;;;24.60;;
79122;SDS011;68526;44.600;26.032;2024-02-21T01:18:06;39.58;;;25.00;;
79122;SDS011;68526;44.600;26.032;2024-02-21T01:18:22;38.13;;;24.58;;
79122;SDS011;68526;44.600;26.032;2024-02-21T01:18:38;37.47;;;24.23;;
79122;SDS011;68526;44.600;26.032;2024-02-21T01:18:54;38.23;;;23.60;;
79122;SDS011;68526;44.600;26.032;2024-02-21T01:19:10;35.97;;;22.50;;
79122;SDS011;68526;44.600;26.032;2024-02-21T01:19:26;35.97;;;23.17;;
79122;SDS011;68526;44.600;26.032;2024-02-21T01:19:43;38.28;;;24.15;;
79122;SDS011;68526;44.600;26.032;2024-02-21T01:20:00;40.00;;;25.20;;
79122;SDS011;68526;44.600;26.032;2024-02-21T01:20:16;39.17;;;24.90;;
79122;SDS011;68526;44.600;26.032;2024-02-21T01:20:32;37.42;;;23.00;;
79122;SDS011;68526;44.600;26.032;2024-02-21T01:20:48;36.40;;;22.50;;
79122;SDS011;68526;44.600;26.032;2024-02-21T01:21:04;36.65;;;22.42;;
79122;SDS011;68526;44.600;26.032;2024-02-21T01:21:22;38.13;;;23.55;;
79122;SDS011;68526;44.600;26.032;2024-02-21T01:21:39;40.42;;;24.75;;
79122;SDS011;68526;44.600;26.032;2024-02-21T01:21:55;39.00;;;24.35;;
79122;SDS011;68526;44.600;26.032;2024-02-21T01:22:12;35.88;;;23.13;;
79122;SDS011;68526;44.600;26.032;2024-02-21T01:22:30;35.80;;;23.23;;
79122;SDS011;68526;44.600;26.032;2024-02-21T01:22:46;37.38;;;23.17;;
79122;SDS011;68526;44.600;26.032;2024-02-21T01:23:02;36.35;;;22.73;;
79122;SDS011;68526;44.600;26.032;2024-02-21T01:23:18;37.25;;;23.02;;
79122;SDS011;68526;44.600;26.032;2024-02-21T01:23:35;38.90;;;23.67;;
79122;SDS011;68526;44.600;26.032;2024-02-21T01:23:52;39.63;;;24.00;;
79122;SDS011;68526;44.600;26.032;2024-02-21T01:24:08;37.55;;;23.20;;
79122;SDS011;68526;44.600;26.032;2024-02-21T01:24:24;37.30;;;23.35;;
79122;SDS011;68526;44.600;26.032;2024-02-21T01:24:40;38.25;;;24.40;;
79122;SDS011;68526;44.600;26.032;2024-02-21T01:24:56;38.27;;;24.20;;
79122;SDS011;68526;44.600;26.032;2024-02-21T01:25:13;38.35;;;23.85;;
79122;SDS011;68526;44.600;26.032;2024-02-21T01:25:29;36.38;;;23.10;;
79122;SDS011;68526;44.600;26.032;2024-02-21T01:25:45;37.25;;;23.40;;
79122;SDS011;68526;44.600;26.032;2024-02-21T01:26:01;38.60;;;23.58;;
79122;SDS011;68526;44.600;26.032;2024-02-21T01:26:17;39.88;;;23.95;;
79122;SDS011;68526;44.600;26.032;2024-02-21T01:26:33;39.28;;;23.15;;
79122;SDS011;68526;44.600;26.032;2024-02-21T01:26:50;38.63;;;22.77;;
79122;SDS011;68526;44.600;26.032;2024-02-21T01:27:06;36.28;;;23.10;;
79122;SDS011;68526;44.600;26.032;2024-02-21T01:27:22;37.30;;;23.40;;
79122;SDS011;68526;44.600;26.032;2024-02-21T01:27:38;39.22;;;23.27;;
79122;SDS011;68526;44.600;26.032;2024-02-21T01:27:54;37.60;;;22.92;;
79122;SDS011;68526;44.600;26.032;2024-02-21T01:28:10;39.07;;;23.20;;
79122;SDS011;68526;44.600;26.032;2024-02-21T01:28:26;39.17;;;23.33;;
79122;SDS011;68526;44.600;26.032;2024-02-21T01:28:43;38.53;;;23.05;;
79122;SDS011;68526;44.600;26.032;2024-02-21T01:28:59;38.83;;;23.10;;
79122;SDS011;68526;44.600;26.032;2024-02-21T01:29:15;38.78;;;23.20;;
79122;SDS011;68526;44.600;26.032;2024-02-21T01:29:31;38.17;;;23.50;;
79122;SDS011;68526;44.600;26.032;2024-02-21T01:29:47;38.10;;;23.77;;
79122;SDS011;68526;44.600;26.032;2024-02-21T01:30:05;40.10;;;23.50;;
79122;SDS011;68526;44.600;26.032;2024-02-21T01:30:22;41.10;;;24.08;;
79122;SDS011;68526;44.600;26.032;2024-02-21T01:30:39;38.88;;;24.30;;
79122;SDS011;68526;44.600;26.032;2024-02-21T01:30:55;36.95;;;23.33;;
79122;SDS011;68526;44.600;26.032;2024-02-21T01:31:11;37.15;;;22.67;;
79122;SDS011;68526;44.600;26.032;2024-02-21T01:31:28;37.17;;;22.33;;
79122;SDS011;68526;44.600;26.032;2024-02-21T01:31:44;38.20;;;22.88;;
79122;SDS011;68526;44.600;26.032;2024-02-21T01:32:01;38.33;;;23.10;;
79122;SDS011;68526;44.600;26.032;2024-02-21T01:32:17;38.17;;;23.23;;
79122;SDS011;68526;44.600;26.032;2024-02-21T01:32:33;38.97;;;23.15;;
79122;SDS011;68526;44.600;26.032;2024-02-21T01:32:50;39.10;;;23.50;;
79122;SDS011;68526;44.600;26.032;2024-02-21T01:33:06;38.15;;;23.27;;
79122;SDS011;68526;44.600;26.032;2024-02-21T01:33:22;37.65;;;23.02;;
79122;SDS011;68526;44.600;26.032;2024-02-21T01:33:38;37.40;;;23.25;;
79122;SDS011;68526;44.600;26.032;2024-02-21T01:33:54;35.42;;;23.02;;
79122;SDS011;68526;44.600;26.032;2024-02-21T01:34:10;37.08;;;23.20;;
79122;SDS011;68526;44.600;26.032;2024-02-21T01:34:26;38.60;;;23.67;;